• Join FlightAware (Why Join?)
  • Login
  • US Flag 
04:26AM EDT


 

Airport Tracker/Info


-or-


 

Live Flight TrackerFlight Track Log ✈ ASQ4252 ✈ 17-Apr-2014 ✈ KDAL - KIAH

Flight Track Log - Related Links

Times and Time Zones

All times are in EDT time to prevent confusion due to time zone crossing. See the ASQ4252 flight status page for this flight to view local times or setup timezone preferences in your user account.

Time Position Orientation Groundspeed Altitude Reporting Facility
EDT Latitude Longitude Course Direction KTS MPH feet Rate Location/Type
08:22PM 32.9167 -96.9333 312° West 270 311 3,300  Level Dallas / Fort Worth TRACON
08:23PM 32.9217 -96.9786 278° West 253 291 5,000 2,760 Climbing Fort Worth Center
08:24PM 32.8778 -97.0278 223° Southwest 256 295 7,700 2,460 Climbing Fort Worth Center
08:25PM 32.7994 -97.0108 170° South 278 320 10,100 1,740 Climbing Fort Worth Center
08:26PM 32.3853 -96.6011 159° South  Level Estimated
08:26PM 32.7200 -96.9883 167° South 295 339 11,300  Level Fort Worth Center
08:27PM 32.6189 -96.9478 161° South 353 406 12,100 1,200 Climbing Fort Worth Center
08:28PM 32.5200 -96.9092 162° South 367 422 13,800 1,620 Climbing Fort Worth Center
08:29PM 32.4186 -96.8689 161° South 362 417 15,500 1,440 Climbing Fort Worth Center
08:30PM 32.3208 -96.8306 162° South 369 425 16,800 1,020 Climbing Fort Worth Center
08:31PM 32.2233 -96.7939 162° South 373 429 17,700 960 Climbing Fort Worth Center
08:32PM 32.1097 -96.7483 161° South 385 443 18,900 1,020 Climbing Fort Worth Center
08:33PM 32.0036 -96.7092 163° South 396 456 19,900 900 Climbing Fort Worth Center
08:34PM 31.9056 -96.6725 162° South 408 470 20,800 480 Climbing Fort Worth Center
08:35PM 31.7703 -96.6175 161° South 423 487 21,000 60 Climbing Fort Worth Center
08:36PM 31.6522 -96.5697 161° South 440 506 21,000  Level Fort Worth Center
08:37PM 31.5367 -96.5208 160° South 440 506 21,000  Level Fort Worth Center
08:38PM 31.4278 -96.4572 154° Southeast 439 505 21,000  Level Fort Worth Center
08:39PM 31.3397 -96.4036 153° Southeast 436 502 21,000  Level Houston Center
08:40PM 31.2108 -96.3228 152° Southeast 435 501 21,000  Level Houston Center
08:41PM 31.1003 -96.2558 153° Southeast 444 511 21,000  Level Houston Center
08:42PM 30.9906 -96.1881 152° Southeast 445 512 21,000 -780 Level Houston Center
08:43PM 30.8786 -96.1208 153° Southeast 447 514 19,500 -1,620 Descending Houston Center
08:44PM 30.7725 -96.0553 152° Southeast 437 503 17,700 -1,860 Descending Houston Center
08:45PM 30.6572 -95.9858 153° Southeast 421 484 15,700 -1,980 Descending Houston Center
08:45PM 30.6306 -95.9711 155° Southeast 409 471 15,200 -1,920 Descending Houston Center
08:46PM 30.6039 -95.9547 152° Southeast 404 465 14,700 -1,800 Descending Houston Center
08:46PM 30.5592 -95.9264 151° Southeast 403 464 13,800 -2,160 Descending Houston Center
08:47PM 30.4997 -95.8914 153° Southeast 393 452 12,500 -1,980 Descending Houston Center
08:47PM 30.4658 -95.8692 151° Southeast 384 442 11,800 -1,800 Descending Houston Center
08:48PM 30.4178 -95.8428 155° Southeast 310 357 10,700 -1,980 Descending Houston Center
08:48PM 30.3856 -95.8339 167° South 318 366 9,800 -2,220 Descending Houston Center
08:49PM 30.3344 -95.8258 172° South 285 328 8,500 -1,680 Descending Houston Center
08:49PM 30.3075 -95.8203 170° South 288 331 8,100 -540 Descending Houston Center
08:50PM 30.2619 -95.8125 172° South 265 305 8,000 -120 Descending Houston Center
08:50PM 30.2206 -95.8047 171° South 267 307 8,000 60 Level Houston Center
08:51PM 30.1853 -95.7997 173° South 265 305 8,100  Climbing Houston Center
08:51PM 30.1478 -95.7917 169° South 266 306 8,000 -240 Descending Houston Center
08:52PM 30.1108 -95.7867 173° South 265 305 7,900 -600 Descending Houston Center
08:53PM 30.0767 -95.7797 170° South 263 303 7,400 -1,320 Descending Houston Center
08:53PM 30.0378 -95.7686 166° South 277 319 6,600 -1,260 Descending Houston Center
08:54PM 30.0119 -95.7403 136° Southeast 273 314 6,100 -540 Descending Houston Center
08:54PM 29.9872 -95.6950 122° Southeast 257 296 6,000 -120 Descending Houston Center
08:55PM 29.9897 -95.6650 84° East 253 291 6,000 -720 Level Houston Center
08:55PM 29.9925 -95.6147 86° East 236 272 5,300 -1,200 Descending Houston Center
08:56PM 29.9931 -95.5897 89° East 239 275 4,800 -1,320 Descending Houston Center
08:56PM 29.9925 -95.5450 91° East 216 249 4,000 -1,260 Descending Houston Center
08:57PM 29.9931 -95.5114 89° East 204 235 3,500 -1,140 Descending Houston Center
08:57PM 29.9917 -95.4872 94° East 157 181 2,900 -1,500 Descending Houston Center
08:58PM 29.9931 -95.4619 86° East 178 205 2,000 -1,260 Descending Houston Center
08:58PM 29.9919 -95.4436 94° East 138 159 1,600 -720 Descending Houston Center
08:59PM 29.9933 -95.4214 86° East 152 175 1,300 -600 Descending Houston Center
08:59PM 29.9922 -95.4025 94° East 118 136 1,000 -600 Descending Houston Center
09:00PM 29.9931 -95.3842 87° East 131 151 700 -720 Descending Houston Center
09:00PM 29.9928 -95.3614 91° East 128 147 300 -300 Descending Houston Center
09:01PM 29.9922 -95.3469 93° East 128 147 400 120 Climbing Houston Center